Detall de PIREP

Printer-friendly versionPDF version

[2017/01/01 16:41:00]
Flight IATA:CT1004
Pilot Number:012
Company ICAO:CAT
Aircraft Type:C750/F
PAX:4
Departing Airport: LJMB
Destination Airport: LIEA
Alternate Airport:LIEO
Online: VATSIM
Route:PETOV UM725 ZAG UM986 KOTOR UT742 NAKIT UL615 ROTAR M167 CHI M859 LUMAV L12 ELB Q125 ROMPO L5 MINKA
Flight Level:F340
No Slew and time accel
No pause
Crash detect
Detect pilot in Cockpit between each 30 and 45 minutes
16:41 Zero fuel Weight: 22870 Lbs, Fuel Weight: 6843 Lbs
16:41 VATSIM:LJMB 011630Z 33002KT CAVOK M03/M06 Q1020
16:41 VATSIM:LIEA 011620Z 00000KT 9999 BKN040 11/06 Q1025
16:42 XMAS CHARTER
16:42 Parking Brakes off
16:47 Take-off
16:47 Take off Weight: 29632 Lbs
16:47 Wind: 326º @ 002 Knots Heading: 326º
16:47 POS N46º 28´ 49´´ E015º 41´ 07´´
16:47 Gear Up: 168 Knots
16:47 Flaps:3 at 168 Knots
16:47 Flaps:2 at 187 Knots
16:47 Flaps:0 at 195 Knots
16:55 TOC
16:55 Fuel Weight: 6339 Lb
17:02 Wind:182º@007 Knots Heading: 253º Ground Speed: 479 Knots Altitude 34242 ft
17:03 TOD
17:03 Fuel Weight: 6108 Lb
17:03 TOC
17:03 Fuel Weight: 6107 Lb
17:04 TOD
17:04 Fuel Weight: 6080 Lb
17:04 TOC
17:04 Fuel Weight: 6078 Lb
17:05 TOD
17:05 Fuel Weight: 6049 Lb
17:05 TOC
17:05 Fuel Weight: 6047 Lb
17:06 TOD
17:06 Fuel Weight: 6020 Lb
17:06 TOC
17:06 Fuel Weight: 6018 Lb
17:07 TOD
17:07 Fuel Weight: 5989 Lb
17:07 TOC
17:07 Fuel Weight: 5988 Lb
17:17 Wind:193º@008 Knots Heading: 248º Ground Speed: 479 Knots Altitude 34268 ft
17:19 TOD
17:19 Fuel Weight: 5641 Lb
17:19 TOC
17:19 Fuel Weight: 5640 Lb
17:32 Wind:197º@008 Knots Heading: 198º Ground Speed: 475 Knots Altitude 34307 ft
17:47 Wind:112º@005 Knots Heading: 194º Ground Speed: 485 Knots Altitude 34297 ft
17:48 TOD
17:48 Fuel Weight: 4830 Lb
18:02 Wind:240º@005 Knots Heading: 247º Ground Speed: 243 Knots Altitude 9229 ft
18:05 Flaps:2 at 181 Knots
18:07 Flaps:3 at 187 Knots
18:07 Gear Down: 181 Knots
18:07 Flaps:4 at 166 Knots
18:08 Flaps:5 at 140 Knots
18:11 TouchDown:Rate -143 ft/min Speed: 119 Knots
18:11 Flaps:3 at 68 Knots
18:11 Flaps:0 at 68 Knots
18:11 VATSIM:LIEA 011750Z 00000KT 9999 FEW035 09/06 Q1025
18:11 Land
18:11 Wind:000º@000 Knots
18:11 Heading: 204º
18:11 Flight Duration: 01:24
18:11 Landing Weight: 27473 Lbs
18:11 POS N40º 37´ 56´´ E008º 17´ 27´´
18:13 Parking brakes on
18:13 Block to Block Duration: 01:31
18:13 Final Fuel: 4583 Lbls
18:13 Spent Fuel: 2259 Lbls
18:13 Flight Length: 584 NM
18:13 TOD Land Length: 111 NM

Exportar CSV

Powered by Drupal - Modified by Danger4k